sensor_id;sensor_type;location;lat;lon;timestamp;temperature;humidity
14475;DHT22;7323;50.848;4.334;2022-10-16T00:00:04;15.30;80.30
14475;DHT22;7323;50.848;4.334;2022-10-16T00:05:44;15.20;81.30
14475;DHT22;7323;50.848;4.334;2022-10-16T00:08:13;15.40;76.50
14475;DHT22;7323;50.848;4.334;2022-10-16T00:10:47;15.30;76.90
14475;DHT22;7323;50.848;4.334;2022-10-16T00:13:21;15.30;77.90
14475;DHT22;7323;50.848;4.334;2022-10-16T00:15:54;15.30;75.30
14475;DHT22;7323;50.848;4.334;2022-10-16T00:18:29;15.20;78.60
14475;DHT22;7323;50.848;4.334;2022-10-16T00:21:07;15.10;81.50
14475;DHT22;7323;50.848;4.334;2022-10-16T00:23:35;15.10;82.80
14475;DHT22;7323;50.848;4.334;2022-10-16T00:26:38;15.10;82.10
14475;DHT22;7323;50.848;4.334;2022-10-16T00:29:27;15.10;81.90
14475;DHT22;7323;50.848;4.334;2022-10-16T00:31:54;15.10;83.30
14475;DHT22;7323;50.848;4.334;2022-10-16T00:34:23;15.20;82.10
14475;DHT22;7323;50.848;4.334;2022-10-16T00:37:10;15.10;82.30
14475;DHT22;7323;50.848;4.334;2022-10-16T00:39:55;15.20;81.20
14475;DHT22;7323;50.848;4.334;2022-10-16T00:42:24;15.20;80.30
14475;DHT22;7323;50.848;4.334;2022-10-16T00:44:55;15.20;80.90
14475;DHT22;7323;50.848;4.334;2022-10-16T00:47:32;15.20;81.10
14475;DHT22;7323;50.848;4.334;2022-10-16T00:52:36;14.90;86.60
14475;DHT22;7323;50.848;4.334;2022-10-16T00:55:05;14.90;89.80
14475;DHT22;7323;50.848;4.334;2022-10-16T00:57:32;14.90;90.50
14475;DHT22;7323;50.848;4.334;2022-10-16T00:59:59;14.90;90.90
14475;DHT22;7323;50.848;4.334;2022-10-16T01:02:25;14.80;91.20
14475;DHT22;7323;50.848;4.334;2022-10-16T01:04:53;15.00;91.20
14475;DHT22;7323;50.848;4.334;2022-10-16T01:07:36;14.90;91.00
14475;DHT22;7323;50.848;4.334;2022-10-16T01:10:17;14.90;91.30
14475;DHT22;7323;50.848;4.334;2022-10-16T01:12:54;14.90;91.70
14475;DHT22;7323;50.848;4.334;2022-10-16T01:15:28;14.90;91.60
14475;DHT22;7323;50.848;4.334;2022-10-16T01:20:29;14.90;91.50
14475;DHT22;7323;50.848;4.334;2022-10-16T01:23:10;15.00;90.90
14475;DHT22;7323;50.848;4.334;2022-10-16T01:28:15;15.00;90.40
14475;DHT22;7323;50.848;4.334;2022-10-16T01:30:44;14.90;91.20
14475;DHT22;7323;50.848;4.334;2022-10-16T01:33:21;15.00;90.40
14475;DHT22;7323;50.848;4.334;2022-10-16T01:35:53;14.90;91.30
14475;DHT22;7323;50.848;4.334;2022-10-16T01:38:32;15.00;91.70
14475;DHT22;7323;50.848;4.334;2022-10-16T01:41:31;14.90;91.40
14475;DHT22;7323;50.848;4.334;2022-10-16T01:44:06;14.90;92.10
14475;DHT22;7323;50.848;4.334;2022-10-16T01:46:35;14.90;92.60
14475;DHT22;7323;50.848;4.334;2022-10-16T01:49:03;15.00;92.00
14475;DHT22;7323;50.848;4.334;2022-10-16T01:51:29;15.00;91.50
14475;DHT22;7323;50.848;4.334;2022-10-16T01:53:57;14.90;91.20
14475;DHT22;7323;50.848;4.334;2022-10-16T01:56:26;15.00;92.20
14475;DHT22;7323;50.848;4.334;2022-10-16T01:59:06;14.90;92.60
14475;DHT22;7323;50.848;4.334;2022-10-16T02:01:34;14.90;91.80
14475;DHT22;7323;50.848;4.334;2022-10-16T02:04:07;14.90;93.00
14475;DHT22;7323;50.848;4.334;2022-10-16T02:06:34;14.90;92.60
14475;DHT22;7323;50.848;4.334;2022-10-16T02:09:02;14.80;93.20
14475;DHT22;7323;50.848;4.334;2022-10-16T02:11:28;14.80;93.80
14475;DHT22;7323;50.848;4.334;2022-10-16T02:14:01;14.70;94.40
14475;DHT22;7323;50.848;4.334;2022-10-16T02:16:54;14.70;95.10
14475;DHT22;7323;50.848;4.334;2022-10-16T02:19:22;14.70;95.20
14475;DHT22;7323;50.848;4.334;2022-10-16T02:21:56;14.70;96.00
14475;DHT22;7323;50.848;4.334;2022-10-16T02:30:24;14.70;95.50
14475;DHT22;7323;50.848;4.334;2022-10-16T02:32:52;14.60;96.60
14475;DHT22;7323;50.848;4.334;2022-10-16T02:35:20;14.60;97.50
14475;DHT22;7323;50.848;4.334;2022-10-16T02:37:47;14.60;97.40
14475;DHT22;7323;50.848;4.334;2022-10-16T02:40:14;14.70;97.20
14475;DHT22;7323;50.848;4.334;2022-10-16T02:42:40;14.70;97.20
14475;DHT22;7323;50.848;4.334;2022-10-16T02:45:20;14.70;97.00
14475;DHT22;7323;50.848;4.334;2022-10-16T02:47:46;14.70;97.10
14475;DHT22;7323;50.848;4.334;2022-10-16T02:50:12;14.60;97.70
14475;DHT22;7323;50.848;4.334;2022-10-16T02:52:41;14.80;97.70
14475;DHT22;7323;50.848;4.334;2022-10-16T02:55:07;14.70;97.90
14475;DHT22;7323;50.848;4.334;2022-10-16T02:57:34;14.70;97.40
14475;DHT22;7323;50.848;4.334;2022-10-16T03:00:06;14.60;98.10
14475;DHT22;7323;50.848;4.334;2022-10-16T03:02:32;14.70;98.40
14475;DHT22;7323;50.848;4.334;2022-10-16T03:04:58;14.70;98.40
14475;DHT22;7323;50.848;4.334;2022-10-16T03:07:24;14.60;99.10
14475;DHT22;7323;50.848;4.334;2022-10-16T03:09:49;14.70;98.90
14475;DHT22;7323;50.848;4.334;2022-10-16T03:12:21;14.80;99.60
14475;DHT22;7323;50.848;4.334;2022-10-16T03:14:48;14.60;99.60
14475;DHT22;7323;50.848;4.334;2022-10-16T03:17:15;14.60;99.80
14475;DHT22;7323;50.848;4.334;2022-10-16T03:19:42;14.60;99.90
14475;DHT22;7323;50.848;4.334;2022-10-16T03:22:10;14.60;99.90
14475;DHT22;7323;50.848;4.334;2022-10-16T03:27:56;14.50;99.90
14475;DHT22;7323;50.848;4.334;2022-10-16T03:30:22;14.50;99.90
14475;DHT22;7323;50.848;4.334;2022-10-16T03:32:48;14.50;99.90
14475;DHT22;7323;50.848;4.334;2022-10-16T03:35:13;14.40;99.90
14475;DHT22;7323;50.848;4.334;2022-10-16T03:37:39;14.50;99.90
14475;DHT22;7323;50.848;4.334;2022-10-16T03:40:05;14.30;99.90
14475;DHT22;7323;50.848;4.334;2022-10-16T03:42:31;14.50;99.90
14475;DHT22;7323;50.848;4.334;2022-10-16T03:44:57;14.60;99.90
14475;DHT22;7323;50.848;4.334;2022-10-16T03:47:22;14.60;99.90
14475;DHT22;7323;50.848;4.334;2022-10-16T03:49:49;14.40;99.90
14475;DHT22;7323;50.848;4.334;2022-10-16T03:52:18;14.50;99.90
14475;DHT22;7323;50.848;4.334;2022-10-16T03:54:45;14.40;99.90
14475;DHT22;7323;50.848;4.334;2022-10-16T03:57:29;14.40;99.90
14475;DHT22;7323;50.848;4.334;2022-10-16T03:59:55;14.40;99.90
14475;DHT22;7323;50.848;4.334;2022-10-16T04:02:22;14.30;99.90
14475;DHT22;7323;50.848;4.334;2022-10-16T04:04:47;14.40;99.90
14475;DHT22;7323;50.848;4.334;2022-10-16T04:07:14;14.40;99.90
14475;DHT22;7323;50.848;4.334;2022-10-16T04:09:40;14.40;99.90
14475;DHT22;7323;50.848;4.334;2022-10-16T04:12:08;14.40;99.90
14475;DHT22;7323;50.848;4.334;2022-10-16T04:14:34;14.40;99.90
14475;DHT22;7323;50.848;4.334;2022-10-16T04:17:01;14.40;99.90
14475;DHT22;7323;50.848;4.334;2022-10-16T04:19:29;14.40;99.90
14475;DHT22;7323;50.848;4.334;2022-10-16T04:21:55;14.40;99.90
14475;DHT22;7323;50.848;4.334;2022-10-16T04:24:24;14.40;99.90
14475;DHT22;7323;50.848;4.334;2022-10-16T04:26:50;14.30;99.90
14475;DHT22;7323;50.848;4.334;2022-10-16T04:29:18;14.40;99.90
14475;DHT22;7323;50.848;4.334;2022-10-16T04:31:45;14.40;99.90
14475;DHT22;7323;50.848;4.334;2022-10-16T04:34:10;14.40;99.90
14475;DHT22;7323;50.848;4.334;2022-10-16T04:36:36;14.40;99.90
14475;DHT22;7323;50.848;4.334;2022-10-16T04:39:01;14.40;99.90
14475;DHT22;7323;50.848;4.334;2022-10-16T04:41:27;14.40;99.90
14475;DHT22;7323;50.848;4.334;2022-10-16T04:43:53;14.40;99.90
14475;DHT22;7323;50.848;4.334;2022-10-16T04:46:18;14.50;99.90
14475;DHT22;7323;50.848;4.334;2022-10-16T04:48:44;14.40;99.90
14475;DHT22;7323;50.848;4.334;2022-10-16T04:51:10;14.40;99.90
14475;DHT22;7323;50.848;4.334;2022-10-16T04:53:36;14.40;99.90
14475;DHT22;7323;50.848;4.334;2022-10-16T04:56:02;14.40;99.90
14475;DHT22;7323;50.848;4.334;2022-10-16T04:58:27;14.30;99.90
14475;DHT22;7323;50.848;4.334;2022-10-16T05:00:56;14.40;99.90
14475;DHT22;7323;50.848;4.334;2022-10-16T05:03:22;14.40;99.90
14475;DHT22;7323;50.848;4.334;2022-10-16T05:05:47;14.30;99.90
14475;DHT22;7323;50.848;4.334;2022-10-16T05:08:14;14.30;99.90
14475;DHT22;7323;50.848;4.334;2022-10-16T05:10:43;14.30;99.90
14475;DHT22;7323;50.848;4.334;2022-10-16T05:13:09;14.30;99.90
14475;DHT22;7323;50.848;4.334;2022-10-16T05:15:35;14.30;99.90
14475;DHT22;7323;50.848;4.334;2022-10-16T05:18:01;14.20;99.90
14475;DHT22;7323;50.848;4.334;2022-10-16T05:20:27;14.30;99.90
14475;DHT22;7323;50.848;4.334;2022-10-16T05:22:56;14.20;99.90
14475;DHT22;7323;50.848;4.334;2022-10-16T05:25:21;14.20;99.90
14475;DHT22;7323;50.848;4.334;2022-10-16T05:27:48;14.20;99.90
14475;DHT22;7323;50.848;4.334;2022-10-16T05:30:14;14.20;99.90
14475;DHT22;7323;50.848;4.334;2022-10-16T05:32:40;14.20;99.90
14475;DHT22;7323;50.848;4.334;2022-10-16T05:35:06;14.20;99.90
14475;DHT22;7323;50.848;4.334;2022-10-16T05:37:32;14.20;99.90
14475;DHT22;7323;50.848;4.334;2022-10-16T05:39:58;14.20;99.90
14475;DHT22;7323;50.848;4.334;2022-10-16T05:42:23;14.10;99.90
14475;DHT22;7323;50.848;4.334;2022-10-16T05:44:50;14.10;99.90
14475;DHT22;7323;50.848;4.334;2022-10-16T05:47:16;14.10;99.90
14475;DHT22;7323;50.848;4.334;2022-10-16T05:49:42;14.20;99.90
14475;DHT22;7323;50.848;4.334;2022-10-16T05:52:08;14.20;99.90
14475;DHT22;7323;50.848;4.334;2022-10-16T05:54:34;14.10;99.90
14475;DHT22;7323;50.848;4.334;2022-10-16T05:57:00;14.10;99.90
14475;DHT22;7323;50.848;4.334;2022-10-16T05:59:28;14.10;99.90
14475;DHT22;7323;50.848;4.334;2022-10-16T06:01:54;14.10;99.90
14475;DHT22;7323;50.848;4.334;2022-10-16T06:04:20;14.20;99.90
14475;DHT22;7323;50.848;4.334;2022-10-16T06:06:46;14.20;99.90
14475;DHT22;7323;50.848;4.334;2022-10-16T06:09:14;14.10;99.90
14475;DHT22;7323;50.848;4.334;2022-10-16T06:11:42;14.20;99.90
14475;DHT22;7323;50.848;4.334;2022-10-16T06:14:10;14.30;99.90
14475;DHT22;7323;50.848;4.334;2022-10-16T06:16:36;14.30;99.90
14475;DHT22;7323;50.848;4.334;2022-10-16T06:19:03;14.20;99.90
14475;DHT22;7323;50.848;4.334;2022-10-16T06:21:37;14.20;99.90
14475;DHT22;7323;50.848;4.334;2022-10-16T06:24:03;14.30;99.90
14475;DHT22;7323;50.848;4.334;2022-10-16T06:26:38;14.20;99.90
14475;DHT22;7323;50.848;4.334;2022-10-16T06:29:05;14.30;99.90
14475;DHT22;7323;50.848;4.334;2022-10-16T06:31:32;14.30;99.90
14475;DHT22;7323;50.848;4.334;2022-10-16T06:34:00;14.40;99.90
14475;DHT22;7323;50.848;4.334;2022-10-16T06:42:54;14.50;99.90
14475;DHT22;7323;50.848;4.334;2022-10-16T06:45:23;14.60;99.90
14475;DHT22;7323;50.848;4.334;2022-10-16T06:47:50;14.60;99.90
14475;DHT22;7323;50.848;4.334;2022-10-16T06:50:16;14.80;99.90
14475;DHT22;7323;50.848;4.334;2022-10-16T06:52:41;14.80;99.90
14475;DHT22;7323;50.848;4.334;2022-10-16T06:55:07;14.90;99.90
14475;DHT22;7323;50.848;4.334;2022-10-16T06:57:34;14.80;99.90
14475;DHT22;7323;50.848;4.334;2022-10-16T07:00:03;14.80;99.90
14475;DHT22;7323;50.848;4.334;2022-10-16T07:03:01;14.80;99.90
14475;DHT22;7323;50.848;4.334;2022-10-16T07:05:27;14.90;99.90
14475;DHT22;7323;50.848;4.334;2022-10-16T07:10:31;15.10;99.90
14475;DHT22;7323;50.848;4.334;2022-10-16T07:13:16;15.10;97.90
14475;DHT22;7323;50.848;4.334;2022-10-16T07:19:06;15.10;98.20
14475;DHT22;7323;50.848;4.334;2022-10-16T07:21:34;15.00;99.90
14475;DHT22;7323;50.848;4.334;2022-10-16T07:24:02;15.20;98.40
14475;DHT22;7323;50.848;4.334;2022-10-16T07:26:35;15.20;98.70
14475;DHT22;7323;50.848;4.334;2022-10-16T07:29:07;15.20;98.60
14475;DHT22;7323;50.848;4.334;2022-10-16T07:31:39;15.20;99.30
14475;DHT22;7323;50.848;4.334;2022-10-16T07:34:05;15.10;99.90
14475;DHT22;7323;50.848;4.334;2022-10-16T07:36:36;15.20;99.90
14475;DHT22;7323;50.848;4.334;2022-10-16T07:39:02;15.20;99.90
14475;DHT22;7323;50.848;4.334;2022-10-16T07:41:29;15.20;99.90
14475;DHT22;7323;50.848;4.334;2022-10-16T07:43:58;15.30;99.90
14475;DHT22;7323;50.848;4.334;2022-10-16T07:46:28;15.40;98.60
14475;DHT22;7323;50.848;4.334;2022-10-16T07:48:54;15.50;97.10
14475;DHT22;7323;50.848;4.334;2022-10-16T07:51:30;15.60;96.00
14475;DHT22;7323;50.848;4.334;2022-10-16T07:53:57;15.50;95.80
14475;DHT22;7323;50.848;4.334;2022-10-16T07:56:23;15.60;94.90
14475;DHT22;7323;50.848;4.334;2022-10-16T07:58:50;15.60;94.30
14475;DHT22;7323;50.848;4.334;2022-10-16T08:01:16;15.70;93.30
14475;DHT22;7323;50.848;4.334;2022-10-16T08:03:50;15.70;92.00
14475;DHT22;7323;50.848;4.334;2022-10-16T08:06:20;15.70;92.50
14475;DHT22;7323;50.848;4.334;2022-10-16T08:08:46;15.70;91.50
14475;DHT22;7323;50.848;4.334;2022-10-16T08:11:13;15.70;91.60
14475;DHT22;7323;50.848;4.334;2022-10-16T08:13:42;15.80;90.50
14475;DHT22;7323;50.848;4.334;2022-10-16T08:16:10;15.80;90.00
14475;DHT22;7323;50.848;4.334;2022-10-16T08:18:40;15.80;90.10
14475;DHT22;7323;50.848;4.334;2022-10-16T08:21:15;15.90;87.40
14475;DHT22;7323;50.848;4.334;2022-10-16T08:23:45;15.90;86.60
14475;DHT22;7323;50.848;4.334;2022-10-16T08:26:12;16.00;84.60
14475;DHT22;7323;50.848;4.334;2022-10-16T08:28:39;16.10;81.50
14475;DHT22;7323;50.848;4.334;2022-10-16T08:33:37;16.30;76.50
14475;DHT22;7323;50.848;4.334;2022-10-16T08:36:04;16.00;72.80
14475;DHT22;7323;50.848;4.334;2022-10-16T08:38:30;16.20;69.50
14475;DHT22;7323;50.848;4.334;2022-10-16T08:49:30;16.60;55.50
14475;DHT22;7323;50.848;4.334;2022-10-16T08:52:29;16.70;52.70
14475;DHT22;7323;50.848;4.334;2022-10-16T08:55:03;16.70;49.50
14475;DHT22;7323;50.848;4.334;2022-10-16T08:57:35;16.70;44.20
14475;DHT22;7323;50.848;4.334;2022-10-16T09:00:13;17.10;39.30
14475;DHT22;7323;50.848;4.334;2022-10-16T09:03:04;17.10;31.20
14475;DHT22;7323;50.848;4.334;2022-10-16T09:17:06;17.30;19.10
14475;DHT22;7323;50.848;4.334;2022-10-16T09:19:53;17.40;15.50
14475;DHT22;7323;50.848;4.334;2022-10-16T09:22:26;17.40;11.10
14475;DHT22;7323;50.848;4.334;2022-10-16T09:25:12;17.50;8.60
14475;DHT22;7323;50.848;4.334;2022-10-16T09:27:42;17.50;5.70
14475;DHT22;7323;50.848;4.334;2022-10-16T09:30:16;17.60;1.00
14475;DHT22;7323;50.848;4.334;2022-10-16T09:32:52;17.60;2.40
14475;DHT22;7323;50.848;4.334;2022-10-16T09:38:31;17.90;1.00
14475;DHT22;7323;50.848;4.334;2022-10-16T09:41:02;18.00;1.00
14475;DHT22;7323;50.848;4.334;2022-10-16T09:43:33;18.00;1.00
14475;DHT22;7323;50.848;4.334;2022-10-16T09:51:47;18.40;1.00
14475;DHT22;7323;50.848;4.334;2022-10-16T09:54:19;18.40;1.00
14475;DHT22;7323;50.848;4.334;2022-10-16T09:56:46;18.30;1.00
14475;DHT22;7323;50.848;4.334;2022-10-16T09:59:22;18.30;1.00
14475;DHT22;7323;50.848;4.334;2022-10-16T10:01:56;18.40;1.00
14475;DHT22;7323;50.848;4.334;2022-10-16T10:04:47;18.40;1.00
14475;DHT22;7323;50.848;4.334;2022-10-16T10:07:37;18.50;1.00
14475;DHT22;7323;50.848;4.334;2022-10-16T10:10:19;18.80;1.00
14475;DHT22;7323;50.848;4.334;2022-10-16T10:12:49;19.00;1.00
14475;DHT22;7323;50.848;4.334;2022-10-16T10:15:16;19.00;1.00
14475;DHT22;7323;50.848;4.334;2022-10-16T10:17:58;18.80;1.00
14475;DHT22;7323;50.848;4.334;2022-10-16T10:20:27;18.80;1.00
14475;DHT22;7323;50.848;4.334;2022-10-16T10:22:58;18.80;1.00
14475;DHT22;7323;50.848;4.334;2022-10-16T10:31:49;19.00;1.00
14475;DHT22;7323;50.848;4.334;2022-10-16T10:34:34;19.00;1.00
14475;DHT22;7323;50.848;4.334;2022-10-16T10:46:08;19.10;1.00
14475;DHT22;7323;50.848;4.334;2022-10-16T10:49:15;19.00;1.00
14475;DHT22;7323;50.848;4.334;2022-10-16T10:55:36;18.80;1.00
14475;DHT22;7323;50.848;4.334;2022-10-16T11:06:30;19.50;1.00
14475;DHT22;7323;50.848;4.334;2022-10-16T11:09:02;19.70;1.00
14475;DHT22;7323;50.848;4.334;2022-10-16T11:11:40;20.10;1.00
14475;DHT22;7323;50.848;4.334;2022-10-16T11:14:24;20.20;1.00
14475;DHT22;7323;50.848;4.334;2022-10-16T11:17:42;20.30;1.00
14475;DHT22;7323;50.848;4.334;2022-10-16T11:20:33;20.10;1.00
14475;DHT22;7323;50.848;4.334;2022-10-16T11:23:25;20.20;1.00
14475;DHT22;7323;50.848;4.334;2022-10-16T11:26:08;20.10;1.00
14475;DHT22;7323;50.848;4.334;2022-10-16T11:29:13;20.00;1.00
14475;DHT22;7323;50.848;4.334;2022-10-16T11:31:57;19.90;1.00
14475;DHT22;7323;50.848;4.334;2022-10-16T11:34:41;20.00;1.00
14475;DHT22;7323;50.848;4.334;2022-10-16T11:37:32;20.00;1.00
14475;DHT22;7323;50.848;4.334;2022-10-16T11:40:32;20.00;1.00
14475;DHT22;7323;50.848;4.334;2022-10-16T11:43:26;20.00;1.00
14475;DHT22;7323;50.848;4.334;2022-10-16T11:45:56;20.00;1.00
14475;DHT22;7323;50.848;4.334;2022-10-16T11:48:48;20.00;1.00
14475;DHT22;7323;50.848;4.334;2022-10-16T11:56:36;20.10;1.00
14475;DHT22;7323;50.848;4.334;2022-10-16T11:59:24;19.90;1.00
14475;DHT22;7323;50.848;4.334;2022-10-16T12:05:29;20.20;1.00
14475;DHT22;7323;50.848;4.334;2022-10-16T12:08:20;20.30;1.00
14475;DHT22;7323;50.848;4.334;2022-10-16T12:10:52;20.20;1.00
14475;DHT22;7323;50.848;4.334;2022-10-16T12:13:46;20.20;1.00
14475;DHT22;7323;50.848;4.334;2022-10-16T12:18:42;20.20;1.00
14475;DHT22;7323;50.848;4.334;2022-10-16T12:21:16;20.20;1.00
14475;DHT22;7323;50.848;4.334;2022-10-16T12:24:03;20.30;1.00
14475;DHT22;7323;50.848;4.334;2022-10-16T12:26:53;20.20;1.00
14475;DHT22;7323;50.848;4.334;2022-10-16T12:29:59;20.30;1.00
14475;DHT22;7323;50.848;4.334;2022-10-16T12:33:01;20.30;1.00
14475;DHT22;7323;50.848;4.334;2022-10-16T12:35:35;20.20;1.00
14475;DHT22;7323;50.848;4.334;2022-10-16T12:43:57;20.50;1.00
14475;DHT22;7323;50.848;4.334;2022-10-16T12:46:38;20.30;1.00
14475;DHT22;7323;50.848;4.334;2022-10-16T12:49:36;20.20;1.00
14475;DHT22;7323;50.848;4.334;2022-10-16T12:52:03;20.30;1.00
14475;DHT22;7323;50.848;4.334;2022-10-16T12:54:37;20.40;1.00
14475;DHT22;7323;50.848;4.334;2022-10-16T13:12:49;20.60;1.00
14475;DHT22;7323;50.848;4.334;2022-10-16T13:18:50;20.90;1.00
14475;DHT22;7323;50.848;4.334;2022-10-16T13:21:42;20.80;1.00
14475;DHT22;7323;50.848;4.334;2022-10-16T13:27:13;20.80;1.00
14475;DHT22;7323;50.848;4.334;2022-10-16T13:33:32;20.90;1.00
14475;DHT22;7323;50.848;4.334;2022-10-16T13:36:47;21.00;1.00
14475;DHT22;7323;50.848;4.334;2022-10-16T13:39:22;21.00;1.00
14475;DHT22;7323;50.848;4.334;2022-10-16T13:42:11;20.90;1.00
14475;DHT22;7323;50.848;4.334;2022-10-16T13:48:18;20.40;1.00
14475;DHT22;7323;50.848;4.334;2022-10-16T13:50:43;20.50;1.00
14475;DHT22;7323;50.848;4.334;2022-10-16T13:53:13;20.50;1.00
14475;DHT22;7323;50.848;4.334;2022-10-16T13:55:39;20.30;1.00
14475;DHT22;7323;50.848;4.334;2022-10-16T13:58:13;20.30;1.00
14475;DHT22;7323;50.848;4.334;2022-10-16T14:00:39;20.50;1.00
14475;DHT22;7323;50.848;4.334;2022-10-16T14:03:15;20.50;1.00
14475;DHT22;7323;50.848;4.334;2022-10-16T14:05:54;20.40;1.00
14475;DHT22;7323;50.848;4.334;2022-10-16T14:09:08;20.30;1.00
14475;DHT22;7323;50.848;4.334;2022-10-16T14:11:47;20.20;1.00
14475;DHT22;7323;50.848;4.334;2022-10-16T14:14:55;20.10;1.00
14475;DHT22;7323;50.848;4.334;2022-10-16T14:17:44;20.10;1.00
14475;DHT22;7323;50.848;4.334;2022-10-16T14:20:32;20.30;1.00
14475;DHT22;7323;50.848;4.334;2022-10-16T14:23:30;20.60;1.00
14475;DHT22;7323;50.848;4.334;2022-10-16T14:26:29;20.60;1.00
14475;DHT22;7323;50.848;4.334;2022-10-16T14:29:18;20.60;1.00
14475;DHT22;7323;50.848;4.334;2022-10-16T14:34:52;20.40;1.00
14475;DHT22;7323;50.848;4.334;2022-10-16T14:37:35;20.40;1.00
14475;DHT22;7323;50.848;4.334;2022-10-16T14:40:02;20.50;1.00
14475;DHT22;7323;50.848;4.334;2022-10-16T14:42:59;20.60;1.00
14475;DHT22;7323;50.848;4.334;2022-10-16T14:46:03;20.80;1.00
14475;DHT22;7323;50.848;4.334;2022-10-16T14:51:44;21.00;1.00
14475;DHT22;7323;50.848;4.334;2022-10-16T14:54:20;20.80;1.00
14475;DHT22;7323;50.848;4.334;2022-10-16T14:56:57;20.80;1.00
14475;DHT22;7323;50.848;4.334;2022-10-16T14:59:48;20.80;1.00
14475;DHT22;7323;50.848;4.334;2022-10-16T15:04:50;21.00;1.00
14475;DHT22;7323;50.848;4.334;2022-10-16T15:09:54;21.20;1.00
14475;DHT22;7323;50.848;4.334;2022-10-16T15:12:34;21.10;1.00
14475;DHT22;7323;50.848;4.334;2022-10-16T15:21:47;21.10;1.00
14475;DHT22;7323;50.848;4.334;2022-10-16T15:24:17;21.20;1.00
14475;DHT22;7323;50.848;4.334;2022-10-16T15:26:49;20.90;1.00
14475;DHT22;7323;50.848;4.334;2022-10-16T15:29:17;20.80;1.00
14475;DHT22;7323;50.848;4.334;2022-10-16T15:31:45;20.70;1.00
14475;DHT22;7323;50.848;4.334;2022-10-16T15:34:13;20.50;1.00
14475;DHT22;7323;50.848;4.334;2022-10-16T15:39:27;20.50;1.00
14475;DHT22;7323;50.848;4.334;2022-10-16T15:41:55;20.60;1.00
14475;DHT22;7323;50.848;4.334;2022-10-16T15:44:22;20.60;1.00
14475;DHT22;7323;50.848;4.334;2022-10-16T15:46:57;20.60;1.00
14475;DHT22;7323;50.848;4.334;2022-10-16T15:49:23;20.30;1.00
14475;DHT22;7323;50.848;4.334;2022-10-16T15:51:50;20.30;1.00
14475;DHT22;7323;50.848;4.334;2022-10-16T15:54:23;20.50;1.00
14475;DHT22;7323;50.848;4.334;2022-10-16T15:56:53;20.50;1.00
14475;DHT22;7323;50.848;4.334;2022-10-16T15:59:19;20.50;1.00
14475;DHT22;7323;50.848;4.334;2022-10-16T16:01:56;20.50;1.00
14475;DHT22;7323;50.848;4.334;2022-10-16T16:04:21;20.50;1.00
14475;DHT22;7323;50.848;4.334;2022-10-16T16:06:51;20.40;1.00
14475;DHT22;7323;50.848;4.334;2022-10-16T16:09:20;20.50;1.00
14475;DHT22;7323;50.848;4.334;2022-10-16T16:12:07;20.50;1.00
14475;DHT22;7323;50.848;4.334;2022-10-16T16:15:15;20.40;1.00
14475;DHT22;7323;50.848;4.334;2022-10-16T16:17:55;20.20;1.00
14475;DHT22;7323;50.848;4.334;2022-10-16T16:20:32;20.20;1.00
14475;DHT22;7323;50.848;4.334;2022-10-16T16:23:07;20.30;1.00
14475;DHT22;7323;50.848;4.334;2022-10-16T16:25:38;20.30;1.00
14475;DHT22;7323;50.848;4.334;2022-10-16T16:28:47;20.20;1.00
14475;DHT22;7323;50.848;4.334;2022-10-16T16:31:18;20.20;1.00
14475;DHT22;7323;50.848;4.334;2022-10-16T16:37:10;20.30;1.00
14475;DHT22;7323;50.848;4.334;2022-10-16T16:40:13;20.20;1.00
14475;DHT22;7323;50.848;4.334;2022-10-16T16:42:44;20.30;1.00
14475;DHT22;7323;50.848;4.334;2022-10-16T16:45:19;20.30;1.00
14475;DHT22;7323;50.848;4.334;2022-10-16T16:47:45;20.10;1.00
14475;DHT22;7323;50.848;4.334;2022-10-16T16:50:13;19.90;1.00
14475;DHT22;7323;50.848;4.334;2022-10-16T16:52:45;20.00;1.00
14475;DHT22;7323;50.848;4.334;2022-10-16T16:55:11;20.20;1.00
14475;DHT22;7323;50.848;4.334;2022-10-16T16:57:39;20.20;1.00
14475;DHT22;7323;50.848;4.334;2022-10-16T17:00:05;20.20;1.00
14475;DHT22;7323;50.848;4.334;2022-10-16T17:02:32;20.00;1.00
14475;DHT22;7323;50.848;4.334;2022-10-16T17:05:00;19.70;1.00
14475;DHT22;7323;50.848;4.334;2022-10-16T17:07:31;19.60;1.00
14475;DHT22;7323;50.848;4.334;2022-10-16T17:09:57;19.80;1.00
14475;DHT22;7323;50.848;4.334;2022-10-16T17:12:26;19.90;1.00
14475;DHT22;7323;50.848;4.334;2022-10-16T17:14:59;19.90;1.00
14475;DHT22;7323;50.848;4.334;2022-10-16T17:20:23;19.90;1.00
14475;DHT22;7323;50.848;4.334;2022-10-16T17:22:49;19.90;1.00
14475;DHT22;7323;50.848;4.334;2022-10-16T17:25:15;19.90;1.00
14475;DHT22;7323;50.848;4.334;2022-10-16T17:27:42;19.90;1.00
14475;DHT22;7323;50.848;4.334;2022-10-16T17:30:07;19.80;1.00
14475;DHT22;7323;50.848;4.334;2022-10-16T17:32:34;19.70;1.00
14475;DHT22;7323;50.848;4.334;2022-10-16T17:35:04;19.70;1.00
14475;DHT22;7323;50.848;4.334;2022-10-16T17:48:01;19.70;14.00
14475;DHT22;7323;50.848;4.334;2022-10-16T17:54:20;19.50;22.70
14475;DHT22;7323;50.848;4.334;2022-10-16T17:56:48;19.40;28.10
14475;DHT22;7323;50.848;4.334;2022-10-16T17:59:16;19.20;36.50
14475;DHT22;7323;50.848;4.334;2022-10-16T18:01:50;19.20;39.80
14475;DHT22;7323;50.848;4.334;2022-10-16T18:04:16;19.20;40.00
14475;DHT22;7323;50.848;4.334;2022-10-16T18:06:44;19.20;41.20
14475;DHT22;7323;50.848;4.334;2022-10-16T18:09:13;19.20;41.50
14475;DHT22;7323;50.848;4.334;2022-10-16T18:11:42;19.20;42.30
14475;DHT22;7323;50.848;4.334;2022-10-16T18:14:16;19.20;44.80
14475;DHT22;7323;50.848;4.334;2022-10-16T18:16:42;19.00;50.60
14475;DHT22;7323;50.848;4.334;2022-10-16T18:19:18;19.00;54.20
14475;DHT22;7323;50.848;4.334;2022-10-16T18:21:52;19.10;53.10
14475;DHT22;7323;50.848;4.334;2022-10-16T18:24:23;19.10;52.40
14475;DHT22;7323;50.848;4.334;2022-10-16T18:26:55;18.90;58.50
14475;DHT22;7323;50.848;4.334;2022-10-16T18:29:25;18.60;66.00
14475;DHT22;7323;50.848;4.334;2022-10-16T18:31:56;18.50;71.90
14475;DHT22;7323;50.848;4.334;2022-10-16T18:34:21;18.40;75.90
14475;DHT22;7323;50.848;4.334;2022-10-16T18:36:48;18.30;84.10
14475;DHT22;7323;50.848;4.334;2022-10-16T18:39:41;18.40;84.00
14475;DHT22;7323;50.848;4.334;2022-10-16T18:42:10;18.50;81.30
14475;DHT22;7323;50.848;4.334;2022-10-16T18:44:45;18.60;78.50
14475;DHT22;7323;50.848;4.334;2022-10-16T18:47:10;18.50;76.70
14475;DHT22;7323;50.848;4.334;2022-10-16T18:49:38;18.50;75.00
14475;DHT22;7323;50.848;4.334;2022-10-16T18:52:09;18.60;74.70
14475;DHT22;7323;50.848;4.334;2022-10-16T18:54:35;18.60;75.90
14475;DHT22;7323;50.848;4.334;2022-10-16T18:57:07;18.40;79.10
14475;DHT22;7323;50.848;4.334;2022-10-16T18:59:33;18.50;85.00
14475;DHT22;7323;50.848;4.334;2022-10-16T19:01:59;18.60;85.70
14475;DHT22;7323;50.848;4.334;2022-10-16T19:04:25;18.60;84.90
14475;DHT22;7323;50.848;4.334;2022-10-16T19:06:52;18.60;82.90
14475;DHT22;7323;50.848;4.334;2022-10-16T19:09:22;18.60;82.00
14475;DHT22;7323;50.848;4.334;2022-10-16T19:11:51;18.50;84.60
14475;DHT22;7323;50.848;4.334;2022-10-16T19:14:19;18.60;82.50
14475;DHT22;7323;50.848;4.334;2022-10-16T19:16:46;18.60;80.80
14475;DHT22;7323;50.848;4.334;2022-10-16T19:19:19;18.50;80.00
14475;DHT22;7323;50.848;4.334;2022-10-16T19:21:46;18.50;83.40
14475;DHT22;7323;50.848;4.334;2022-10-16T19:24:20;18.40;84.20
14475;DHT22;7323;50.848;4.334;2022-10-16T19:26:46;18.30;88.30